sensor_id;sensor_type;location;lat;lon;timestamp;temperature;humidity
11112;DHT22;5609;49.466;8.468;2023-04-03T00:00:37;4.30;99.90
11112;DHT22;5609;49.466;8.468;2023-04-03T00:03:03;4.30;99.90
11112;DHT22;5609;49.466;8.468;2023-04-03T00:05:30;4.20;99.90
11112;DHT22;5609;49.466;8.468;2023-04-03T00:07:58;4.30;99.90
11112;DHT22;5609;49.466;8.468;2023-04-03T00:10:27;4.20;99.90
11112;DHT22;5609;49.466;8.468;2023-04-03T00:12:54;4.30;99.90
11112;DHT22;5609;49.466;8.468;2023-04-03T00:15:21;4.30;99.90
11112;DHT22;5609;49.466;8.468;2023-04-03T00:17:47;4.20;99.90
11112;DHT22;5609;49.466;8.468;2023-04-03T00:20:15;4.20;99.90
11112;DHT22;5609;49.466;8.468;2023-04-03T00:22:41;4.20;99.90
11112;DHT22;5609;49.466;8.468;2023-04-03T00:25:10;4.10;99.90
11112;DHT22;5609;49.466;8.468;2023-04-03T00:27:37;4.00;99.90
11112;DHT22;5609;49.466;8.468;2023-04-03T00:30:08;4.00;99.90
11112;DHT22;5609;49.466;8.468;2023-04-03T00:32:35;4.00;99.90
11112;DHT22;5609;49.466;8.468;2023-04-03T00:35:02;4.10;99.90
11112;DHT22;5609;49.466;8.468;2023-04-03T00:37:29;4.10;99.90
11112;DHT22;5609;49.466;8.468;2023-04-03T00:39:56;4.10;99.90
11112;DHT22;5609;49.466;8.468;2023-04-03T00:42:24;4.10;99.90
11112;DHT22;5609;49.466;8.468;2023-04-03T00:47:56;4.10;99.90
11112;DHT22;5609;49.466;8.468;2023-04-03T00:50:25;4.00;99.90
11112;DHT22;5609;49.466;8.468;2023-04-03T01:02:44;4.00;99.90
11112;DHT22;5609;49.466;8.468;2023-04-03T01:05:12;3.80;99.90
11112;DHT22;5609;49.466;8.468;2023-04-03T01:07:39;3.80;99.90
11112;DHT22;5609;49.466;8.468;2023-04-03T01:10:08;3.80;99.90
11112;DHT22;5609;49.466;8.468;2023-04-03T01:12:37;3.90;99.90
11112;DHT22;5609;49.466;8.468;2023-04-03T01:15:08;3.90;99.90
11112;DHT22;5609;49.466;8.468;2023-04-03T01:17:39;4.00;99.90
11112;DHT22;5609;49.466;8.468;2023-04-03T01:20:35;3.90;99.90
11112;DHT22;5609;49.466;8.468;2023-04-03T01:23:22;3.80;99.90
11112;DHT22;5609;49.466;8.468;2023-04-03T01:25:53;3.80;99.90
11112;DHT22;5609;49.466;8.468;2023-04-03T01:28:24;3.80;99.90
11112;DHT22;5609;49.466;8.468;2023-04-03T01:30:58;3.70;99.90
11112;DHT22;5609;49.466;8.468;2023-04-03T01:33:28;3.70;99.90
11112;DHT22;5609;49.466;8.468;2023-04-03T01:35:55;3.60;99.90
11112;DHT22;5609;49.466;8.468;2023-04-03T01:38:22;3.60;99.90
11112;DHT22;5609;49.466;8.468;2023-04-03T01:40:49;3.70;99.90
11112;DHT22;5609;49.466;8.468;2023-04-03T01:43:16;3.70;99.90
11112;DHT22;5609;49.466;8.468;2023-04-03T01:45:42;3.60;99.90
11112;DHT22;5609;49.466;8.468;2023-04-03T01:48:09;3.60;99.90
11112;DHT22;5609;49.466;8.468;2023-04-03T01:50:37;3.50;99.90
11112;DHT22;5609;49.466;8.468;2023-04-03T01:53:04;3.60;99.90
11112;DHT22;5609;49.466;8.468;2023-04-03T01:55:31;3.60;99.90
11112;DHT22;5609;49.466;8.468;2023-04-03T01:57:57;3.50;99.90
11112;DHT22;5609;49.466;8.468;2023-04-03T02:00:24;3.50;99.90
11112;DHT22;5609;49.466;8.468;2023-04-03T02:02:52;3.40;99.90
11112;DHT22;5609;49.466;8.468;2023-04-03T02:05:18;3.50;99.90
11112;DHT22;5609;49.466;8.468;2023-04-03T02:07:46;3.40;99.90
11112;DHT22;5609;49.466;8.468;2023-04-03T02:10:13;3.50;99.90
11112;DHT22;5609;49.466;8.468;2023-04-03T02:12:40;3.40;99.90
11112;DHT22;5609;49.466;8.468;2023-04-03T02:15:08;3.40;99.90
11112;DHT22;5609;49.466;8.468;2023-04-03T02:17:35;3.40;99.90
11112;DHT22;5609;49.466;8.468;2023-04-03T02:20:02;3.40;99.90
11112;DHT22;5609;49.466;8.468;2023-04-03T02:22:29;3.30;99.90
11112;DHT22;5609;49.466;8.468;2023-04-03T02:24:57;3.20;99.90
11112;DHT22;5609;49.466;8.468;2023-04-03T02:27:24;3.10;99.90
11112;DHT22;5609;49.466;8.468;2023-04-03T02:29:50;3.20;99.90
11112;DHT22;5609;49.466;8.468;2023-04-03T02:32:17;3.10;99.90
11112;DHT22;5609;49.466;8.468;2023-04-03T02:34:44;3.10;99.90
11112;DHT22;5609;49.466;8.468;2023-04-03T02:37:11;3.00;99.90
11112;DHT22;5609;49.466;8.468;2023-04-03T02:39:37;3.00;99.90
11112;DHT22;5609;49.466;8.468;2023-04-03T02:42:06;3.00;99.90
11112;DHT22;5609;49.466;8.468;2023-04-03T02:44:32;3.00;99.90
11112;DHT22;5609;49.466;8.468;2023-04-03T02:46:59;2.90;99.90
11112;DHT22;5609;49.466;8.468;2023-04-03T02:49:26;2.90;99.90
11112;DHT22;5609;49.466;8.468;2023-04-03T02:51:53;3.00;99.90
11112;DHT22;5609;49.466;8.468;2023-04-03T02:54:19;3.00;99.90
11112;DHT22;5609;49.466;8.468;2023-04-03T02:56:48;2.90;99.90
11112;DHT22;5609;49.466;8.468;2023-04-03T02:59:16;2.80;99.90
11112;DHT22;5609;49.466;8.468;2023-04-03T03:01:43;2.90;99.90
11112;DHT22;5609;49.466;8.468;2023-04-03T03:04:10;2.90;99.90
11112;DHT22;5609;49.466;8.468;2023-04-03T03:06:37;2.90;99.90
11112;DHT22;5609;49.466;8.468;2023-04-03T03:11:31;2.80;99.90
11112;DHT22;5609;49.466;8.468;2023-04-03T03:13:58;2.60;99.90
11112;DHT22;5609;49.466;8.468;2023-04-03T03:16:26;2.60;99.90
11112;DHT22;5609;49.466;8.468;2023-04-03T03:18:53;2.60;99.90
11112;DHT22;5609;49.466;8.468;2023-04-03T03:21:19;2.60;99.90
11112;DHT22;5609;49.466;8.468;2023-04-03T03:23:46;2.50;99.90
11112;DHT22;5609;49.466;8.468;2023-04-03T03:26:13;2.50;99.90
11112;DHT22;5609;49.466;8.468;2023-04-03T03:28:40;2.60;99.90
11112;DHT22;5609;49.466;8.468;2023-04-03T03:31:08;2.50;99.90
11112;DHT22;5609;49.466;8.468;2023-04-03T03:33:36;2.50;99.90
11112;DHT22;5609;49.466;8.468;2023-04-03T03:36:03;2.50;99.90
11112;DHT22;5609;49.466;8.468;2023-04-03T03:38:30;2.50;99.90
11112;DHT22;5609;49.466;8.468;2023-04-03T03:40:57;2.50;99.90
11112;DHT22;5609;49.466;8.468;2023-04-03T03:43:24;2.50;99.90
11112;DHT22;5609;49.466;8.468;2023-04-03T03:45:51;2.50;99.90
11112;DHT22;5609;49.466;8.468;2023-04-03T03:48:18;2.40;99.90
11112;DHT22;5609;49.466;8.468;2023-04-03T03:50:46;2.50;99.90
11112;DHT22;5609;49.466;8.468;2023-04-03T03:53:13;2.60;99.90
11112;DHT22;5609;49.466;8.468;2023-04-03T03:55:40;2.60;99.90
11112;DHT22;5609;49.466;8.468;2023-04-03T03:58:07;2.50;99.90
11112;DHT22;5609;49.466;8.468;2023-04-03T04:00:34;2.50;99.90
11112;DHT22;5609;49.466;8.468;2023-04-03T04:03:01;2.50;99.90
11112;DHT22;5609;49.466;8.468;2023-04-03T04:05:27;2.40;99.90
11112;DHT22;5609;49.466;8.468;2023-04-03T04:07:56;2.30;99.90
11112;DHT22;5609;49.466;8.468;2023-04-03T04:10:22;2.30;99.90
11112;DHT22;5609;49.466;8.468;2023-04-03T04:12:49;2.30;99.90
11112;DHT22;5609;49.466;8.468;2023-04-03T04:15:16;2.30;99.90
11112;DHT22;5609;49.466;8.468;2023-04-03T04:17:43;2.30;99.90
11112;DHT22;5609;49.466;8.468;2023-04-03T04:20:11;2.30;99.90
11112;DHT22;5609;49.466;8.468;2023-04-03T04:22:37;2.30;99.90
11112;DHT22;5609;49.466;8.468;2023-04-03T04:25:06;2.30;99.90
11112;DHT22;5609;49.466;8.468;2023-04-03T04:27:33;2.30;99.90
11112;DHT22;5609;49.466;8.468;2023-04-03T04:30:00;2.30;99.90
11112;DHT22;5609;49.466;8.468;2023-04-03T04:32:28;2.20;99.90
11112;DHT22;5609;49.466;8.468;2023-04-03T04:34:55;2.20;99.90
11112;DHT22;5609;49.466;8.468;2023-04-03T04:37:21;2.20;99.90
11112;DHT22;5609;49.466;8.468;2023-04-03T04:39:48;2.20;99.90
11112;DHT22;5609;49.466;8.468;2023-04-03T04:42:16;2.20;99.90
11112;DHT22;5609;49.466;8.468;2023-04-03T04:44:43;2.20;99.90
11112;DHT22;5609;49.466;8.468;2023-04-03T04:47:10;2.20;99.90
11112;DHT22;5609;49.466;8.468;2023-04-03T04:49:37;2.10;99.90
11112;DHT22;5609;49.466;8.468;2023-04-03T04:52:04;2.20;99.90
11112;DHT22;5609;49.466;8.468;2023-04-03T04:54:31;2.20;99.90
11112;DHT22;5609;49.466;8.468;2023-04-03T04:56:57;2.20;99.90
11112;DHT22;5609;49.466;8.468;2023-04-03T04:59:26;2.20;99.90
11112;DHT22;5609;49.466;8.468;2023-04-03T05:01:52;2.30;99.90
11112;DHT22;5609;49.466;8.468;2023-04-03T05:04:19;2.20;99.90
11112;DHT22;5609;49.466;8.468;2023-04-03T05:06:46;2.20;99.90
11112;DHT22;5609;49.466;8.468;2023-04-03T05:09:13;2.20;99.90
11112;DHT22;5609;49.466;8.468;2023-04-03T05:11:40;2.30;99.90
11112;DHT22;5609;49.466;8.468;2023-04-03T05:14:06;2.30;99.90
11112;DHT22;5609;49.466;8.468;2023-04-03T05:16:34;2.30;99.90
11112;DHT22;5609;49.466;8.468;2023-04-03T05:19:01;2.30;99.90
11112;DHT22;5609;49.466;8.468;2023-04-03T05:21:28;2.40;99.90
11112;DHT22;5609;49.466;8.468;2023-04-03T05:23:58;2.40;99.90
11112;DHT22;5609;49.466;8.468;2023-04-03T05:26:28;2.50;99.90
11112;DHT22;5609;49.466;8.468;2023-04-03T05:28:55;2.60;99.90
11112;DHT22;5609;49.466;8.468;2023-04-03T05:31:21;2.60;99.90
11112;DHT22;5609;49.466;8.468;2023-04-03T05:33:50;2.80;99.90
11112;DHT22;5609;49.466;8.468;2023-04-03T05:36:16;2.80;99.90
11112;DHT22;5609;49.466;8.468;2023-04-03T05:38:43;2.90;99.90
11112;DHT22;5609;49.466;8.468;2023-04-03T05:41:10;2.90;99.90
11112;DHT22;5609;49.466;8.468;2023-04-03T05:43:37;2.90;99.90
11112;DHT22;5609;49.466;8.468;2023-04-03T05:46:08;3.00;99.90
11112;DHT22;5609;49.466;8.468;2023-04-03T05:48:35;3.10;99.90
11112;DHT22;5609;49.466;8.468;2023-04-03T05:51:04;3.20;99.90
11112;DHT22;5609;49.466;8.468;2023-04-03T05:53:33;3.20;99.90
11112;DHT22;5609;49.466;8.468;2023-04-03T05:56:01;3.30;99.90
11112;DHT22;5609;49.466;8.468;2023-04-03T05:58:28;3.30;99.90
11112;DHT22;5609;49.466;8.468;2023-04-03T06:00:54;3.40;99.90
11112;DHT22;5609;49.466;8.468;2023-04-03T06:03:21;3.40;99.90
11112;DHT22;5609;49.466;8.468;2023-04-03T06:05:48;3.40;99.90
11112;DHT22;5609;49.466;8.468;2023-04-03T06:08:16;3.40;99.90
11112;DHT22;5609;49.466;8.468;2023-04-03T06:10:44;3.50;99.90
11112;DHT22;5609;49.466;8.468;2023-04-03T06:13:11;3.50;99.90
11112;DHT22;5609;49.466;8.468;2023-04-03T06:15:37;3.50;99.90
11112;DHT22;5609;49.466;8.468;2023-04-03T06:18:05;3.50;99.90
11112;DHT22;5609;49.466;8.468;2023-04-03T06:20:32;3.50;99.90
11112;DHT22;5609;49.466;8.468;2023-04-03T06:22:58;3.60;99.90
11112;DHT22;5609;49.466;8.468;2023-04-03T06:25:26;3.60;99.90
11112;DHT22;5609;49.466;8.468;2023-04-03T06:27:53;3.70;99.90
11112;DHT22;5609;49.466;8.468;2023-04-03T06:30:21;3.80;99.90
11112;DHT22;5609;49.466;8.468;2023-04-03T06:32:48;3.80;99.90
11112;DHT22;5609;49.466;8.468;2023-04-03T06:35:15;3.90;99.90
11112;DHT22;5609;49.466;8.468;2023-04-03T06:37:41;4.00;99.90
11112;DHT22;5609;49.466;8.468;2023-04-03T06:40:15;4.10;99.90
11112;DHT22;5609;49.466;8.468;2023-04-03T06:42:45;4.20;99.90
11112;DHT22;5609;49.466;8.468;2023-04-03T06:45:12;4.20;99.90
11112;DHT22;5609;49.466;8.468;2023-04-03T06:47:39;4.30;99.90
11112;DHT22;5609;49.466;8.468;2023-04-03T06:50:06;4.30;99.90
11112;DHT22;5609;49.466;8.468;2023-04-03T06:52:34;4.40;99.90
11112;DHT22;5609;49.466;8.468;2023-04-03T06:55:01;4.40;99.90
11112;DHT22;5609;49.466;8.468;2023-04-03T06:57:27;4.50;99.90
11112;DHT22;5609;49.466;8.468;2023-04-03T06:59:56;4.50;99.90
11112;DHT22;5609;49.466;8.468;2023-04-03T07:02:23;4.60;99.90
11112;DHT22;5609;49.466;8.468;2023-04-03T07:04:49;4.70;99.90
11112;DHT22;5609;49.466;8.468;2023-04-03T07:07:16;4.80;99.90
11112;DHT22;5609;49.466;8.468;2023-04-03T07:09:43;4.90;99.90
11112;DHT22;5609;49.466;8.468;2023-04-03T07:12:12;5.00;99.90
11112;DHT22;5609;49.466;8.468;2023-04-03T07:14:39;5.10;99.90
11112;DHT22;5609;49.466;8.468;2023-04-03T07:17:08;5.10;99.90
11112;DHT22;5609;49.466;8.468;2023-04-03T07:19:35;5.20;99.90
11112;DHT22;5609;49.466;8.468;2023-04-03T07:22:01;5.20;99.90
11112;DHT22;5609;49.466;8.468;2023-04-03T07:24:28;5.30;99.90
11112;DHT22;5609;49.466;8.468;2023-04-03T07:26:55;5.40;99.90
11112;DHT22;5609;49.466;8.468;2023-04-03T07:29:22;5.50;99.90
11112;DHT22;5609;49.466;8.468;2023-04-03T07:31:49;5.60;99.90
11112;DHT22;5609;49.466;8.468;2023-04-03T07:34:17;5.70;99.90
11112;DHT22;5609;49.466;8.468;2023-04-03T07:36:44;5.80;99.90
11112;DHT22;5609;49.466;8.468;2023-04-03T07:39:11;5.80;99.90
11112;DHT22;5609;49.466;8.468;2023-04-03T07:41:38;5.90;99.90
11112;DHT22;5609;49.466;8.468;2023-04-03T07:44:05;5.90;99.90
11112;DHT22;5609;49.466;8.468;2023-04-03T07:46:35;6.00;99.90
11112;DHT22;5609;49.466;8.468;2023-04-03T07:49:02;6.10;99.90
11112;DHT22;5609;49.466;8.468;2023-04-03T07:51:31;6.10;99.90
11112;DHT22;5609;49.466;8.468;2023-04-03T07:53:57;6.20;99.90
11112;DHT22;5609;49.466;8.468;2023-04-03T07:56:24;6.30;99.90
11112;DHT22;5609;49.466;8.468;2023-04-03T07:58:51;6.40;99.90
11112;DHT22;5609;49.466;8.468;2023-04-03T08:01:19;6.50;99.90
11112;DHT22;5609;49.466;8.468;2023-04-03T08:03:46;6.50;99.90
11112;DHT22;5609;49.466;8.468;2023-04-03T08:06:12;6.50;99.90
11112;DHT22;5609;49.466;8.468;2023-04-03T08:08:41;6.60;99.90
11112;DHT22;5609;49.466;8.468;2023-04-03T08:11:09;6.70;99.90
11112;DHT22;5609;49.466;8.468;2023-04-03T08:13:37;6.80;99.90
11112;DHT22;5609;49.466;8.468;2023-04-03T08:16:09;6.90;99.90
11112;DHT22;5609;49.466;8.468;2023-04-03T08:18:36;6.90;99.90
11112;DHT22;5609;49.466;8.468;2023-04-03T08:21:06;7.00;99.90
11112;DHT22;5609;49.466;8.468;2023-04-03T08:23:33;7.00;99.90
11112;DHT22;5609;49.466;8.468;2023-04-03T08:26:07;7.10;99.90
11112;DHT22;5609;49.466;8.468;2023-04-03T08:28:33;7.20;99.90
11112;DHT22;5609;49.466;8.468;2023-04-03T08:31:03;7.30;99.90
11112;DHT22;5609;49.466;8.468;2023-04-03T08:33:31;7.40;99.90
11112;DHT22;5609;49.466;8.468;2023-04-03T08:35:59;7.40;99.90
11112;DHT22;5609;49.466;8.468;2023-04-03T08:38:26;7.40;99.90
11112;DHT22;5609;49.466;8.468;2023-04-03T08:41:01;7.60;99.90
11112;DHT22;5609;49.466;8.468;2023-04-03T08:43:36;7.70;99.90
11112;DHT22;5609;49.466;8.468;2023-04-03T08:46:11;7.80;99.90
11112;DHT22;5609;49.466;8.468;2023-04-03T08:48:41;7.80;99.90
11112;DHT22;5609;49.466;8.468;2023-04-03T08:51:13;7.80;99.90
11112;DHT22;5609;49.466;8.468;2023-04-03T08:53:44;8.00;99.90
11112;DHT22;5609;49.466;8.468;2023-04-03T08:56:14;8.00;99.90
11112;DHT22;5609;49.466;8.468;2023-04-03T08:58:49;8.20;99.90
11112;DHT22;5609;49.466;8.468;2023-04-03T09:01:20;8.30;99.90
11112;DHT22;5609;49.466;8.468;2023-04-03T09:03:47;8.40;98.20
11112;DHT22;5609;49.466;8.468;2023-04-03T09:06:16;8.60;96.90
11112;DHT22;5609;49.466;8.468;2023-04-03T09:08:49;8.50;93.80
11112;DHT22;5609;49.466;8.468;2023-04-03T09:11:21;8.70;93.00
11112;DHT22;5609;49.466;8.468;2023-04-03T09:13:56;8.60;85.50
11112;DHT22;5609;49.466;8.468;2023-04-03T09:16:34;8.70;88.40
11112;DHT22;5609;49.466;8.468;2023-04-03T09:19:09;8.80;86.00
11112;DHT22;5609;49.466;8.468;2023-04-03T09:21:40;9.00;76.90
11112;DHT22;5609;49.466;8.468;2023-04-03T09:24:09;9.10;75.00
11112;DHT22;5609;49.466;8.468;2023-04-03T09:26:42;9.20;62.40
11112;DHT22;5609;49.466;8.468;2023-04-03T09:29:17;9.30;61.60
11112;DHT22;5609;49.466;8.468;2023-04-03T09:31:47;9.30;56.30
11112;DHT22;5609;49.466;8.468;2023-04-03T09:34:20;9.60;60.00
11112;DHT22;5609;49.466;8.468;2023-04-03T09:36:50;9.70;47.90
11112;DHT22;5609;49.466;8.468;2023-04-03T09:39:19;9.70;44.80
11112;DHT22;5609;49.466;8.468;2023-04-03T09:41:57;9.70;40.40
11112;DHT22;5609;49.466;8.468;2023-04-03T09:44:27;10.00;37.00
11112;DHT22;5609;49.466;8.468;2023-04-03T09:46:54;10.20;43.80
11112;DHT22;5609;49.466;8.468;2023-04-03T09:49:21;10.20;41.50
11112;DHT22;5609;49.466;8.468;2023-04-03T09:51:48;10.50;32.90
11112;DHT22;5609;49.466;8.468;2023-04-03T09:54:35;10.30;31.20
11112;DHT22;5609;49.466;8.468;2023-04-03T09:57:08;10.50;33.60
11112;DHT22;5609;49.466;8.468;2023-04-03T09:59:45;10.80;27.70
11112;DHT22;5609;49.466;8.468;2023-04-03T10:02:28;10.80;27.30
11112;DHT22;5609;49.466;8.468;2023-04-03T10:04:57;11.00;28.60
11112;DHT22;5609;49.466;8.468;2023-04-03T10:07:30;11.20;26.80
11112;DHT22;5609;49.466;8.468;2023-04-03T10:09:58;11.10;23.10
11112;DHT22;5609;49.466;8.468;2023-04-03T10:12:27;11.10;19.80
11112;DHT22;5609;49.466;8.468;2023-04-03T10:14:57;11.10;24.30
11112;DHT22;5609;49.466;8.468;2023-04-03T10:17:32;10.80;21.00
11112;DHT22;5609;49.466;8.468;2023-04-03T10:20:08;10.50;23.40
11112;DHT22;5609;49.466;8.468;2023-04-03T10:22:42;10.50;25.50
11112;DHT22;5609;49.466;8.468;2023-04-03T10:25:20;10.80;27.10
11112;DHT22;5609;49.466;8.468;2023-04-03T10:27:53;11.10;25.70
11112;DHT22;5609;49.466;8.468;2023-04-03T10:30:34;11.20;20.30
11112;DHT22;5609;49.466;8.468;2023-04-03T10:33:26;11.10;20.60
11112;DHT22;5609;49.466;8.468;2023-04-03T10:36:06;11.20;16.60
11112;DHT22;5609;49.466;8.468;2023-04-03T10:38:43;11.40;20.00
11112;DHT22;5609;49.466;8.468;2023-04-03T10:41:17;11.70;15.80
11112;DHT22;5609;49.466;8.468;2023-04-03T10:43:53;11.60;14.80
11112;DHT22;5609;49.466;8.468;2023-04-03T10:46:27;11.90;12.00
11112;DHT22;5609;49.466;8.468;2023-04-03T10:49:05;11.60;10.80
11112;DHT22;5609;49.466;8.468;2023-04-03T10:51:40;11.50;9.30
11112;DHT22;5609;49.466;8.468;2023-04-03T10:54:11;11.70;7.60
11112;DHT22;5609;49.466;8.468;2023-04-03T10:56:41;11.90;9.00
11112;DHT22;5609;49.466;8.468;2023-04-03T10:59:23;12.50;5.60
11112;DHT22;5609;49.466;8.468;2023-04-03T11:01:55;13.20;3.20
11112;DHT22;5609;49.466;8.468;2023-04-03T11:04:25;13.50;1.00
11112;DHT22;5609;49.466;8.468;2023-04-03T11:06:58;13.80;1.00
11112;DHT22;5609;49.466;8.468;2023-04-03T11:09:27;14.10;1.00
11112;DHT22;5609;49.466;8.468;2023-04-03T11:12:00;14.10;1.00
11112;DHT22;5609;49.466;8.468;2023-04-03T11:14:30;14.30;1.00
11112;DHT22;5609;49.466;8.468;2023-04-03T11:17:13;14.50;1.00
11112;DHT22;5609;49.466;8.468;2023-04-03T11:19:46;14.30;1.00
11112;DHT22;5609;49.466;8.468;2023-04-03T11:22:21;13.90;1.00
11112;DHT22;5609;49.466;8.468;2023-04-03T11:24:57;13.60;1.00
11112;DHT22;5609;49.466;8.468;2023-04-03T11:27:27;13.80;1.00
11112;DHT22;5609;49.466;8.468;2023-04-03T11:29:58;13.80;1.00
11112;DHT22;5609;49.466;8.468;2023-04-03T11:32:42;13.30;1.00
11112;DHT22;5609;49.466;8.468;2023-04-03T11:35:13;12.70;1.00
11112;DHT22;5609;49.466;8.468;2023-04-03T11:37:44;12.30;1.00
11112;DHT22;5609;49.466;8.468;2023-04-03T11:40:22;11.80;1.00
11112;DHT22;5609;49.466;8.468;2023-04-03T11:42:53;11.50;1.00
11112;DHT22;5609;49.466;8.468;2023-04-03T11:45:33;11.40;1.00
11112;DHT22;5609;49.466;8.468;2023-04-03T11:48:04;11.40;1.00
11112;DHT22;5609;49.466;8.468;2023-04-03T11:50:44;11.40;3.00
11112;DHT22;5609;49.466;8.468;2023-04-03T11:53:28;11.20;4.10
11112;DHT22;5609;49.466;8.468;2023-04-03T11:56:00;11.20;4.60
11112;DHT22;5609;49.466;8.468;2023-04-03T11:58:29;11.30;4.30
11112;DHT22;5609;49.466;8.468;2023-04-03T12:01:11;11.10;4.70
11112;DHT22;5609;49.466;8.468;2023-04-03T12:04:08;11.20;5.80
11112;DHT22;5609;49.466;8.468;2023-04-03T12:10:13;11.70;4.70
11112;DHT22;5609;49.466;8.468;2023-04-03T12:12:41;12.60;1.30
11112;DHT22;5609;49.466;8.468;2023-04-03T12:15:41;12.60;1.00
11112;DHT22;5609;49.466;8.468;2023-04-03T12:21:19;12.40;1.00
11112;DHT22;5609;49.466;8.468;2023-04-03T12:23:58;12.70;1.00
11112;DHT22;5609;49.466;8.468;2023-04-03T12:26:28;13.20;1.00
11112;DHT22;5609;49.466;8.468;2023-04-03T12:28:56;14.00;1.00
11112;DHT22;5609;49.466;8.468;2023-04-03T12:31:25;14.10;1.00
11112;DHT22;5609;49.466;8.468;2023-04-03T12:34:17;14.60;1.00
11112;DHT22;5609;49.466;8.468;2023-04-03T12:36:54;15.00;1.00
11112;DHT22;5609;49.466;8.468;2023-04-03T12:39:48;15.20;1.00
11112;DHT22;5609;49.466;8.468;2023-04-03T12:42:30;15.60;1.00
11112;DHT22;5609;49.466;8.468;2023-04-03T12:45:02;15.20;1.00
11112;DHT22;5609;49.466;8.468;2023-04-03T12:47:37;15.30;1.00
11112;DHT22;5609;49.466;8.468;2023-04-03T12:50:19;15.00;1.00
11112;DHT22;5609;49.466;8.468;2023-04-03T12:52:56;14.80;1.00
11112;DHT22;5609;49.466;8.468;2023-04-03T12:55:25;14.90;1.00
11112;DHT22;5609;49.466;8.468;2023-04-03T12:57:53;15.10;1.00
11112;DHT22;5609;49.466;8.468;2023-04-03T13:00:30;15.50;1.00
11112;DHT22;5609;49.466;8.468;2023-04-03T13:03:00;15.50;1.00
11112;DHT22;5609;49.466;8.468;2023-04-03T13:05:30;15.30;1.00
11112;DHT22;5609;49.466;8.468;2023-04-03T13:08:02;15.90;1.00
11112;DHT22;5609;49.466;8.468;2023-04-03T13:10:31;16.50;1.00
11112;DHT22;5609;49.466;8.468;2023-04-03T13:13:08;17.10;1.00
11112;DHT22;5609;49.466;8.468;2023-04-03T13:15:43;17.10;1.00
11112;DHT22;5609;49.466;8.468;2023-04-03T13:18:29;16.90;1.00
11112;DHT22;5609;49.466;8.468;2023-04-03T13:21:01;17.30;1.00
11112;DHT22;5609;49.466;8.468;2023-04-03T13:23:30;17.20;1.00
11112;DHT22;5609;49.466;8.468;2023-04-03T13:25:59;16.50;1.00
11112;DHT22;5609;49.466;8.468;2023-04-03T13:28:30;15.90;1.00
11112;DHT22;5609;49.466;8.468;2023-04-03T13:31:03;15.90;1.00
11112;DHT22;5609;49.466;8.468;2023-04-03T13:33:33;16.40;1.00
11112;DHT22;5609;49.466;8.468;2023-04-03T13:36:05;17.10;1.00
11112;DHT22;5609;49.466;8.468;2023-04-03T13:38:34;16.40;1.00
11112;DHT22;5609;49.466;8.468;2023-04-03T13:41:04;15.90;1.00
11112;DHT22;5609;49.466;8.468;2023-04-03T13:43:34;14.60;1.00
11112;DHT22;5609;49.466;8.468;2023-04-03T13:46:21;14.20;1.00
11112;DHT22;5609;49.466;8.468;2023-04-03T13:48:50;13.90;1.00
11112;DHT22;5609;49.466;8.468;2023-04-03T13:51:22;13.60;1.00
11112;DHT22;5609;49.466;8.468;2023-04-03T13:53:53;13.90;1.00
11112;DHT22;5609;49.466;8.468;2023-04-03T13:56:25;15.10;1.00
11112;DHT22;5609;49.466;8.468;2023-04-03T13:58:56;16.00;1.00
11112;DHT22;5609;49.466;8.468;2023-04-03T14:01:24;16.80;1.00
11112;DHT22;5609;49.466;8.468;2023-04-03T14:03:55;17.20;1.00
11112;DHT22;5609;49.466;8.468;2023-04-03T14:06:22;17.30;1.00
11112;DHT22;5609;49.466;8.468;2023-04-03T14:08:50;16.50;1.00
11112;DHT22;5609;49.466;8.468;2023-04-03T14:11:19;15.50;1.00
11112;DHT22;5609;49.466;8.468;2023-04-03T14:13:48;14.80;1.00
11112;DHT22;5609;49.466;8.468;2023-04-03T14:16:18;14.50;1.00
11112;DHT22;5609;49.466;8.468;2023-04-03T14:18:45;15.40;1.00
11112;DHT22;5609;49.466;8.468;2023-04-03T14:21:13;16.50;1.00
11112;DHT22;5609;49.466;8.468;2023-04-03T14:23:40;17.80;1.00
11112;DHT22;5609;49.466;8.468;2023-04-03T14:26:11;18.90;1.00
11112;DHT22;5609;49.466;8.468;2023-04-03T14:28:38;19.60;1.00
11112;DHT22;5609;49.466;8.468;2023-04-03T14:31:06;19.90;1.00
11112;DHT22;5609;49.466;8.468;2023-04-03T14:33:33;20.50;1.00
11112;DHT22;5609;49.466;8.468;2023-04-03T14:36:01;20.20;1.00
11112;DHT22;5609;49.466;8.468;2023-04-03T14:38:30;19.50;1.00
11112;DHT22;5609;49.466;8.468;2023-04-03T14:40:57;18.50;1.00
11112;DHT22;5609;49.466;8.468;2023-04-03T14:43:25;17.40;1.00
11112;DHT22;5609;49.466;8.468;2023-04-03T14:45:52;17.50;1.00
11112;DHT22;5609;49.466;8.468;2023-04-03T14:48:21;18.60;1.00
11112;DHT22;5609;49.466;8.468;2023-04-03T14:50:49;19.30;1.00
11112;DHT22;5609;49.466;8.468;2023-04-03T14:53:18;20.10;1.00
11112;DHT22;5609;49.466;8.468;2023-04-03T14:55:49;19.80;1.00
11112;DHT22;5609;49.466;8.468;2023-04-03T14:58:17;20.00;1.00
11112;DHT22;5609;49.466;8.468;2023-04-03T15:00:47;20.30;1.00
11112;DHT22;5609;49.466;8.468;2023-04-03T15:03:15;20.70;1.00
11112;DHT22;5609;49.466;8.468;2023-04-03T15:05:44;21.10;1.00
11112;DHT22;5609;49.466;8.468;2023-04-03T15:08:19;21.50;1.00
11112;DHT22;5609;49.466;8.468;2023-04-03T15:10:47;21.80;1.00
11112;DHT22;5609;49.466;8.468;2023-04-03T15:13:14;21.70;1.00
11112;DHT22;5609;49.466;8.468;2023-04-03T15:15:42;21.70;1.00
11112;DHT22;5609;49.466;8.468;2023-04-03T15:18:15;22.20;1.00
11112;DHT22;5609;49.466;8.468;2023-04-03T15:20:43;22.30;1.00
11112;DHT22;5609;49.466;8.468;2023-04-03T15:23:12;21.30;1.00
11112;DHT22;5609;49.466;8.468;2023-04-03T15:25:39;20.90;1.00
11112;DHT22;5609;49.466;8.468;2023-04-03T15:28:08;21.10;1.00
11112;DHT22;5609;49.466;8.468;2023-04-03T15:30:36;21.20;1.00
11112;DHT22;5609;49.466;8.468;2023-04-03T15:33:05;21.20;1.00
11112;DHT22;5609;49.466;8.468;2023-04-03T15:35:33;21.20;1.00
11112;DHT22;5609;49.466;8.468;2023-04-03T15:37:59;20.60;1.00
11112;DHT22;5609;49.466;8.468;2023-04-03T15:40:26;20.40;1.00
11112;DHT22;5609;49.466;8.468;2023-04-03T15:45:20;20.80;1.00
11112;DHT22;5609;49.466;8.468;2023-04-03T15:47:47;21.90;1.00
11112;DHT22;5609;49.466;8.468;2023-04-03T15:50:14;21.30;1.00
11112;DHT22;5609;49.466;8.468;2023-04-03T15:52:42;21.60;1.00
11112;DHT22;5609;49.466;8.468;2023-04-03T15:55:09;22.30;1.00
11112;DHT22;5609;49.466;8.468;2023-04-03T15:57:36;23.30;1.00
11112;DHT22;5609;49.466;8.468;2023-04-03T16:00:03;23.60;1.00
11112;DHT22;5609;49.466;8.468;2023-04-03T16:02:30;23.00;1.00
11112;DHT22;5609;49.466;8.468;2023-04-03T16:04:57;23.10;1.00
11112;DHT22;5609;49.466;8.468;2023-04-03T16:07:23;23.00;1.00
11112;DHT22;5609;49.466;8.468;2023-04-03T16:12:19;23.50;1.00
11112;DHT22;5609;49.466;8.468;2023-04-03T16:14:45;24.00;1.00
11112;DHT22;5609;49.466;8.468;2023-04-03T16:17:12;23.70;1.00
11112;DHT22;5609;49.466;8.468;2023-04-03T16:19:39;24.00;1.00
11112;DHT22;5609;49.466;8.468;2023-04-03T16:22:06;22.90;1.00
11112;DHT22;5609;49.466;8.468;2023-04-03T16:24:33;22.20;1.00
11112;DHT22;5609;49.466;8.468;2023-04-03T16:27:02;21.70;1.00
11112;DHT22;5609;49.466;8.468;2023-04-03T16:29:29;20.10;1.00
11112;DHT22;5609;49.466;8.468;2023-04-03T16:31:56;19.20;1.00
11112;DHT22;5609;49.466;8.468;2023-04-03T16:34:23;19.10;1.00
11112;DHT22;5609;49.466;8.468;2023-04-03T16:36:51;18.70;1.00
11112;DHT22;5609;49.466;8.468;2023-04-03T16:39:18;17.40;1.00
11112;DHT22;5609;49.466;8.468;2023-04-03T16:41:45;16.40;1.00